createdAt,value
2022-09-18T00:01:25.411Z,2.13
2022-09-18T00:03:54.946Z,1.80
2022-09-18T00:06:24.500Z,2.13
2022-09-18T00:08:57.590Z,2.25
2022-09-18T00:11:26.365Z,2.13
2022-09-18T00:13:53.377Z,2.38
2022-09-18T00:16:22.043Z,2.15
2022-09-18T00:18:48.986Z,2.15
2022-09-18T00:21:18.323Z,2.05
2022-09-18T00:23:45.432Z,2.60
2022-09-18T00:26:13.268Z,2.35
2022-09-18T00:28:40.053Z,2.08
2022-09-18T00:31:14.688Z,2.38
2022-09-18T00:33:41.879Z,2.20
2022-09-18T00:36:14.291Z,2.05
2022-09-18T00:38:41.496Z,2.17
2022-09-18T00:41:12.833Z,2.15
2022-09-18T00:43:39.604Z,1.90
2022-09-18T00:46:09.144Z,2.65
2022-09-18T00:48:47.246Z,2.70
2022-09-18T00:51:14.580Z,2.67
2022-09-18T00:53:46.221Z,2.33
2022-09-18T00:56:15.008Z,2.60
2022-09-18T00:58:42.286Z,2.17
2022-09-18T01:01:09.157Z,2.63
2022-09-18T01:03:36.211Z,2.95
2022-09-18T01:06:11.442Z,2.40
2022-09-18T01:08:48.210Z,3.00
2022-09-18T01:11:50.771Z,2.38
2022-09-18T01:14:57.620Z,2.58
2022-09-18T01:18:02.317Z,2.85
2022-09-18T01:20:46.669Z,2.72
2022-09-18T01:23:51.060Z,3.72
2022-09-18T01:26:54.491Z,3.75
2022-09-18T01:29:40.848Z,4.50
2022-09-18T01:32:13.724Z,4.30
2022-09-18T01:34:55.434Z,3.03
2022-09-18T01:37:36.625Z,4.10
2022-09-18T01:40:18.629Z,3.20
2022-09-18T01:42:47.821Z,3.30
2022-09-18T01:45:33.815Z,2.95
2022-09-18T01:48:04.506Z,3.40
2022-09-18T01:50:42.828Z,3.45
2022-09-18T01:53:14.068Z,3.58
2022-09-18T01:55:48.879Z,4.15
2022-09-18T01:58:19.807Z,3.85
2022-09-18T02:00:54.265Z,3.97
2022-09-18T02:03:27.713Z,2.88
2022-09-18T02:06:07.859Z,2.78
2022-09-18T02:08:48.098Z,3.13
2022-09-18T02:11:17.505Z,3.20
2022-09-18T02:13:58.873Z,3.33
2022-09-18T02:16:41.268Z,3.25
2022-09-18T02:19:11.318Z,2.95
2022-09-18T02:21:39.189Z,2.70
2022-09-18T02:24:09.309Z,2.92
2022-09-18T02:26:38.108Z,3.65
2022-09-18T02:29:05.579Z,4.95
2022-09-18T02:31:33.011Z,4.05
2022-09-18T02:33:59.802Z,3.78
2022-09-18T02:36:33.030Z,3.40
2022-09-18T02:39:24.439Z,2.90
2022-09-18T02:42:21.043Z,3.88
2022-09-18T02:44:55.131Z,3.00
2022-09-18T02:47:41.459Z,2.88
2022-09-18T02:50:08.551Z,2.53
2022-09-18T02:52:59.618Z,2.38
2022-09-18T02:55:38.667Z,2.47
2022-09-18T02:58:10.335Z,2.97
2022-09-18T03:00:43.579Z,3.10
2022-09-18T03:03:15.781Z,3.20
2022-09-18T03:05:48.917Z,2.83
2022-09-18T03:08:16.996Z,2.00
2022-09-18T03:10:43.628Z,2.75
2022-09-18T03:13:10.291Z,2.75
2022-09-18T03:15:37.021Z,2.75
2022-09-18T03:18:04.229Z,2.85
2022-09-18T03:20:31.144Z,3.53
2022-09-18T03:23:02.460Z,2.95
2022-09-18T03:25:30.957Z,3.25
2022-09-18T03:27:57.786Z,4.15
2022-09-18T03:30:32.917Z,3.58
2022-09-18T03:32:59.789Z,4.10
2022-09-18T03:35:27.706Z,4.38
2022-09-18T03:37:55.894Z,4.63
2022-09-18T03:40:25.831Z,5.10
2022-09-18T03:42:53.157Z,5.05
2022-09-18T03:45:19.723Z,4.90
2022-09-18T03:47:46.868Z,5.50
2022-09-18T03:50:15.015Z,5.05
2022-09-18T03:52:42.578Z,5.50
2022-09-18T03:55:27.751Z,5.35
2022-09-18T03:58:13.287Z,4.90
2022-09-18T04:01:00.199Z,4.93
2022-09-18T04:03:37.357Z,5.55
2022-09-18T04:06:22.702Z,5.38
2022-09-18T04:09:06.463Z,5.28
2022-09-18T04:11:39.530Z,5.22
2022-09-18T04:14:06.265Z,5.82
2022-09-18T04:16:33.447Z,5.35
2022-09-18T04:19:00.162Z,5.40
2022-09-18T04:21:26.850Z,5.30
2022-09-18T04:23:53.538Z,5.35
2022-09-18T04:26:20.336Z,5.30
2022-09-18T04:28:53.506Z,5.25
2022-09-18T04:31:20.865Z,5.00
2022-09-18T04:33:48.511Z,6.35
2022-09-18T04:36:16.425Z,6.38
2022-09-18T04:38:44.270Z,5.63
2022-09-18T04:41:11.040Z,6.00
2022-09-18T04:43:38.004Z,5.45
2022-09-18T04:46:06.730Z,4.88
2022-09-18T04:48:33.512Z,5.50
2022-09-18T04:51:02.516Z,5.10
2022-09-18T04:53:35.405Z,5.75
2022-09-18T04:56:02.337Z,6.30
2022-09-18T04:58:34.116Z,6.85
2022-09-18T05:01:01.849Z,6.43
2022-09-18T05:03:28.863Z,5.72
2022-09-18T05:05:56.202Z,5.15
2022-09-18T05:08:23.355Z,6.65
2022-09-18T05:10:51.100Z,5.80
2022-09-18T05:13:17.952Z,5.38
2022-09-18T05:15:58.214Z,5.57
2022-09-18T05:18:28.255Z,4.30
2022-09-18T05:21:04.639Z,4.63
2022-09-18T05:23:33.970Z,4.63
2022-09-18T05:26:02.064Z,4.60
2022-09-18T05:28:28.690Z,3.53
2022-09-18T05:31:00.832Z,2.88
2022-09-18T05:33:36.622Z,3.80
2022-09-18T05:36:05.701Z,4.80
2022-09-18T05:38:33.723Z,3.53
2022-09-18T05:41:02.447Z,3.90
2022-09-18T05:43:29.796Z,3.80
2022-09-18T05:45:57.154Z,4.05
2022-09-18T05:48:33.915Z,3.92
2022-09-18T05:51:00.771Z,4.03
2022-09-18T05:53:29.203Z,3.13
2022-09-18T05:56:03.745Z,3.45
2022-09-18T05:58:31.369Z,2.67
2022-09-18T06:00:59.340Z,3.00
2022-09-18T06:03:32.867Z,3.35
2022-09-18T06:06:00.909Z,3.20
2022-09-18T06:08:27.604Z,3.47
2022-09-18T06:10:54.948Z,3.10
2022-09-18T06:13:21.720Z,3.95
2022-09-18T06:15:54.896Z,3.80
2022-09-18T06:18:47.542Z,3.65
2022-09-18T06:21:15.177Z,3.65
2022-09-18T06:23:43.149Z,3.78
2022-09-18T06:26:24.446Z,3.00
2022-09-18T06:28:51.547Z,3.53
2022-09-18T06:31:18.374Z,3.75
2022-09-18T06:34:05.258Z,3.65
2022-09-18T06:36:31.861Z,3.25
2022-09-18T06:39:30.980Z,4.00
2022-09-18T06:42:00.295Z,3.58
2022-09-18T06:45:05.941Z,3.88
2022-09-18T06:47:33.667Z,4.00
2022-09-18T06:50:03.163Z,4.72
2022-09-18T06:52:31.367Z,4.70
2022-09-18T06:55:01.348Z,4.70
2022-09-18T06:57:32.392Z,4.20
2022-09-18T06:59:59.156Z,4.57
2022-09-18T07:02:27.296Z,5.35
2022-09-18T07:05:21.076Z,4.95
2022-09-18T07:07:50.117Z,4.97
2022-09-18T07:10:17.021Z,4.25
2022-09-18T07:12:48.716Z,4.75
2022-09-18T07:15:19.119Z,4.70
2022-09-18T07:17:46.092Z,5.00
2022-09-18T07:20:16.257Z,4.13
2022-09-18T07:22:47.381Z,4.53
2022-09-18T07:25:15.184Z,4.55
2022-09-18T07:27:43.582Z,4.45
2022-09-18T07:30:13.599Z,4.93
2022-09-18T07:32:43.324Z,4.03
2022-09-18T07:35:15.681Z,4.28
2022-09-18T07:37:42.676Z,4.25
2022-09-18T07:40:20.085Z,4.05
2022-09-18T07:43:06.822Z,4.75
2022-09-18T07:45:35.284Z,4.28
2022-09-18T07:48:09.032Z,4.95
2022-09-18T07:50:43.608Z,4.22
2022-09-18T07:53:11.182Z,4.40
2022-09-18T07:55:43.634Z,4.95
2022-09-18T07:58:15.946Z,4.97
2022-09-18T08:01:00.838Z,4.35
2022-09-18T08:03:29.392Z,4.20
2022-09-18T08:06:17.320Z,4.43
2022-09-18T08:08:55.114Z,4.22
2022-09-18T08:11:42.544Z,3.78
2022-09-18T08:14:47.271Z,3.75
2022-09-18T08:17:23.580Z,4.00
2022-09-18T08:20:09.160Z,3.35
2022-09-18T08:22:42.914Z,3.20
2022-09-18T08:25:10.952Z,3.95
2022-09-18T08:27:41.722Z,4.20
2022-09-18T08:30:10.578Z,4.43
2022-09-18T08:32:39.698Z,4.55
2022-09-18T08:35:08.947Z,4.45
2022-09-18T08:37:35.832Z,4.47
2022-09-18T08:40:56.566Z,4.35
2022-09-18T08:44:01.792Z,3.42
2022-09-18T08:46:42.619Z,3.78
2022-09-18T08:49:23.397Z,3.25
2022-09-18T08:51:59.821Z,2.28
2022-09-18T08:54:41.716Z,3.53
2022-09-18T08:57:48.332Z,3.40
2022-09-18T09:00:28.393Z,3.20
2022-09-18T09:03:26.325Z,2.30
2022-09-18T09:05:56.127Z,2.50
2022-09-18T09:08:34.856Z,2.30
2022-09-18T09:11:06.878Z,2.05
2022-09-18T09:13:37.076Z,1.95
2022-09-18T09:16:15.143Z,1.85
2022-09-18T09:29:31.121Z,1.80
2022-09-18T09:32:54.209Z,1.73
2022-09-18T09:35:47.905Z,1.67
2022-09-18T09:41:52.895Z,1.80
2022-09-18T09:48:08.184Z,2.20
2022-09-18T09:51:10.092Z,2.85
2022-09-18T09:53:36.819Z,3.17
2022-09-18T09:56:31.258Z,2.28
2022-09-18T09:59:08.480Z,2.30
2022-09-18T10:02:07.628Z,1.83
2022-09-18T10:04:48.262Z,1.77
2022-09-18T10:07:31.773Z,1.40
2022-09-18T10:10:13.849Z,1.13
2022-09-18T10:12:56.898Z,1.15
2022-09-18T10:15:36.042Z,1.00
2022-09-18T10:18:06.662Z,1.00
2022-09-18T10:20:36.414Z,1.15
2022-09-18T10:23:15.127Z,1.23
2022-09-18T10:25:53.115Z,0.95
2022-09-18T10:28:21.309Z,0.80
2022-09-18T10:31:06.009Z,0.70
2022-09-18T10:33:47.408Z,0.60
2022-09-18T10:36:34.095Z,0.90
2022-09-18T10:39:18.856Z,0.85
2022-09-18T10:41:47.332Z,0.80
2022-09-18T10:44:43.790Z,1.00
2022-09-18T10:47:24.002Z,0.93
2022-09-18T10:50:06.325Z,0.93
2022-09-18T10:52:41.586Z,1.00
2022-09-18T10:55:39.218Z,1.00
2022-09-18T10:58:14.458Z,1.30
2022-09-18T11:00:59.422Z,1.50
2022-09-18T11:03:40.160Z,1.50
2022-09-18T11:06:24.762Z,1.95
2022-09-18T11:08:56.664Z,1.63
2022-09-18T11:11:30.238Z,2.10
2022-09-18T11:14:19.096Z,2.10
2022-09-18T11:16:59.160Z,1.50
2022-09-18T11:19:34.993Z,1.73
2022-09-18T11:22:42.945Z,1.80
2022-09-18T11:25:21.562Z,1.50
2022-09-18T11:27:54.045Z,1.65
2022-09-18T11:30:30.590Z,1.92
2022-09-18T11:33:03.956Z,2.40
2022-09-18T11:35:33.788Z,2.47
2022-09-18T11:38:07.900Z,2.20
2022-09-18T11:40:48.451Z,2.67
2022-09-18T11:43:30.615Z,2.13
2022-09-18T11:46:34.391Z,1.85
2022-09-18T11:49:15.624Z,1.90
2022-09-18T11:51:58.526Z,2.00
2022-09-18T11:54:43.906Z,1.77
2022-09-18T11:57:29.923Z,1.52
2022-09-18T12:00:35.862Z,1.80
2022-09-18T12:06:06.867Z,2.25
2022-09-18T12:09:20.068Z,1.50
2022-09-18T12:12:01.616Z,1.98
2022-09-18T12:14:44.043Z,2.22
2022-09-18T12:17:18.309Z,1.30
2022-09-18T12:19:54.360Z,1.75
2022-09-18T12:22:46.764Z,1.25
2022-09-18T12:25:20.730Z,1.20
2022-09-18T12:28:39.801Z,1.50
2022-09-18T12:31:20.855Z,1.67
2022-09-18T12:33:58.591Z,2.20
2022-09-18T12:36:54.014Z,2.17
2022-09-18T12:39:28.270Z,1.10
2022-09-18T12:42:11.206Z,1.52
2022-09-18T12:45:03.113Z,1.20
2022-09-18T12:47:44.942Z,1.27
2022-09-18T12:50:11.662Z,1.45
2022-09-18T12:53:10.235Z,1.27
2022-09-18T12:56:14.660Z,1.10
2022-09-18T12:59:05.993Z,1.00
2022-09-18T13:01:37.610Z,1.23
2022-09-18T13:04:19.261Z,1.15
2022-09-18T13:06:52.913Z,1.30
2022-09-18T13:09:26.097Z,1.40
2022-09-18T13:12:07.716Z,0.98
2022-09-18T13:14:41.632Z,1.08
2022-09-18T13:17:22.324Z,1.10
2022-09-18T13:20:06.407Z,1.35
2022-09-18T13:22:38.251Z,1.52
2022-09-18T13:25:22.483Z,0.68
2022-09-18T13:27:53.767Z,0.98
2022-09-18T13:30:29.865Z,1.70
2022-09-18T13:33:00.242Z,1.10
2022-09-18T13:35:38.606Z,1.77
2022-09-18T13:38:10.019Z,1.63
2022-09-18T13:40:42.128Z,1.98
2022-09-18T13:43:27.274Z,1.60
2022-09-18T13:45:55.358Z,1.40
2022-09-18T13:48:30.141Z,1.67
2022-09-18T13:51:10.494Z,1.38
2022-09-18T13:53:38.580Z,1.10
2022-09-18T13:56:08.281Z,1.33
2022-09-18T13:58:55.934Z,1.30
2022-09-18T14:01:41.332Z,1.50
2022-09-18T14:04:40.190Z,1.38
2022-09-18T14:07:39.198Z,1.52
2022-09-18T14:10:31.618Z,1.27
2022-09-18T14:13:22.727Z,1.27
2022-09-18T14:16:06.242Z,1.63
2022-09-18T14:18:48.032Z,1.85
2022-09-18T14:21:14.727Z,1.85
2022-09-18T14:23:47.529Z,2.30
2022-09-18T14:26:33.619Z,2.13
2022-09-18T14:29:18.746Z,2.10
2022-09-18T14:31:54.248Z,2.25
2022-09-18T14:34:23.994Z,2.00
2022-09-18T14:37:00.897Z,1.80
2022-09-18T14:39:40.840Z,1.88
2022-09-18T14:42:14.303Z,2.35
2022-09-18T14:44:49.325Z,1.92
2022-09-18T14:47:23.726Z,2.53
2022-09-18T14:49:53.687Z,2.30
2022-09-18T14:52:31.527Z,2.58
2022-09-18T14:55:08.395Z,2.00
2022-09-18T14:57:45.859Z,2.40
2022-09-18T15:00:22.384Z,2.10
2022-09-18T15:02:59.853Z,1.67
2022-09-18T15:05:27.567Z,1.58
2022-09-18T15:08:17.520Z,1.65
2022-09-18T15:10:47.881Z,1.42
2022-09-18T15:13:15.467Z,1.30
2022-09-18T15:15:44.138Z,1.50
2022-09-18T15:18:27.219Z,1.08
2022-09-18T15:20:59.022Z,1.10
2022-09-18T15:23:32.067Z,1.30
2022-09-18T15:26:03.361Z,1.40
2022-09-18T15:28:33.302Z,1.20
2022-09-18T15:31:03.726Z,1.30
2022-09-18T15:33:33.468Z,1.70
2022-09-18T15:36:32.705Z,1.50
2022-09-18T15:39:00.726Z,1.60
2022-09-18T15:41:42.176Z,1.50
2022-09-18T15:44:33.943Z,1.50
2022-09-18T15:47:26.170Z,1.08
2022-09-18T15:49:53.014Z,1.70
2022-09-18T15:52:39.272Z,1.52
2022-09-18T15:55:23.629Z,1.65
2022-09-18T15:57:52.452Z,1.10
2022-09-18T16:00:24.350Z,1.50
2022-09-18T16:03:02.192Z,1.40
2022-09-18T16:05:32.956Z,1.45
2022-09-18T16:08:04.656Z,1.30
2022-09-18T16:10:36.362Z,1.10
2022-09-18T16:13:22.990Z,1.58
2022-09-18T16:16:11.233Z,1.27
2022-09-18T16:18:54.993Z,1.23
2022-09-18T16:21:23.396Z,1.00
2022-09-18T16:23:54.983Z,1.30
2022-09-18T16:26:24.931Z,1.70
2022-09-18T16:28:56.044Z,1.60
2022-09-18T16:31:26.550Z,1.58
2022-09-18T16:34:04.528Z,1.75
2022-09-18T16:36:34.265Z,1.30
2022-09-18T16:39:10.134Z,1.63
2022-09-18T16:41:37.362Z,1.40
2022-09-18T16:44:06.891Z,1.40
2022-09-18T16:46:54.474Z,1.10
2022-09-18T16:49:40.125Z,1.08
2022-09-18T16:52:06.905Z,1.10
2022-09-18T16:54:33.900Z,1.10
2022-09-18T16:57:07.336Z,1.45
2022-09-18T16:59:35.185Z,1.00
2022-09-18T17:02:04.938Z,1.08
2022-09-18T17:04:32.971Z,1.20
2022-09-18T17:06:59.681Z,1.08
2022-09-18T17:09:26.415Z,1.02
2022-09-18T17:11:53.713Z,0.90
2022-09-18T17:14:23.633Z,1.02
2022-09-18T17:16:53.105Z,1.70
2022-09-18T17:19:22.637Z,1.73
2022-09-18T17:21:50.605Z,2.13
2022-09-18T17:24:18.142Z,2.30
2022-09-18T17:26:46.828Z,2.05
2022-09-18T17:29:14.486Z,2.13
2022-09-18T17:31:43.165Z,1.60
2022-09-18T17:34:18.834Z,1.85
2022-09-18T17:36:45.811Z,1.63
2022-09-18T17:39:13.507Z,2.03
2022-09-18T17:41:42.613Z,1.88
2022-09-18T17:44:09.370Z,1.60
2022-09-18T17:46:36.146Z,2.25
2022-09-18T17:49:02.961Z,1.50
2022-09-18T17:51:31.393Z,1.80
2022-09-18T17:54:03.094Z,1.55
2022-09-18T17:56:33.039Z,1.83
2022-09-18T17:59:02.471Z,1.73
2022-09-18T18:01:29.955Z,1.90
2022-09-18T18:03:58.619Z,2.17
2022-09-18T18:06:30.437Z,2.63
2022-09-18T18:08:57.226Z,1.73
2022-09-18T18:11:25.347Z,1.60
2022-09-18T18:13:53.337Z,1.60
2022-09-18T18:16:51.941Z,1.75
2022-09-18T18:19:19.183Z,1.80
2022-09-18T18:21:46.104Z,1.67
2022-09-18T18:24:15.294Z,1.40
2022-09-18T18:26:46.887Z,1.60
2022-09-18T18:29:15.862Z,1.60
2022-09-18T18:31:43.303Z,1.60
2022-09-18T18:34:11.062Z,1.90
2022-09-18T18:36:39.766Z,1.52
2022-09-18T18:39:09.808Z,1.92
2022-09-18T18:41:37.217Z,2.00
2022-09-18T18:44:05.798Z,2.08
2022-09-18T18:46:35.962Z,2.33
2022-09-18T18:49:09.031Z,2.47
2022-09-18T18:51:38.967Z,1.90
2022-09-18T18:54:06.283Z,2.20
2022-09-18T18:56:35.810Z,1.88
2022-09-18T18:59:03.053Z,2.55
2022-09-18T19:01:32.133Z,2.60
2022-09-18T19:04:06.606Z,2.10
2022-09-18T19:06:39.507Z,2.05
2022-09-18T19:09:20.125Z,2.47
2022-09-18T19:11:50.866Z,2.30
2022-09-18T19:14:22.730Z,1.63
2022-09-18T19:16:50.486Z,1.55
2022-09-18T19:19:18.790Z,1.67
2022-09-18T19:21:45.970Z,1.42
2022-09-18T19:26:59.134Z,2.08
2022-09-18T19:29:27.824Z,1.90
2022-09-18T19:31:54.674Z,1.77
2022-09-18T19:34:22.090Z,2.05
2022-09-18T19:36:50.007Z,2.35
2022-09-18T19:39:20.810Z,1.88
2022-09-18T19:42:02.007Z,2.35
2022-09-18T19:44:40.705Z,2.00
2022-09-18T19:47:30.551Z,2.00
2022-09-18T19:49:59.364Z,1.83
2022-09-18T19:52:28.565Z,2.08
2022-09-18T19:54:56.353Z,1.90
2022-09-18T19:57:24.112Z,1.88
2022-09-18T19:59:55.741Z,1.90
2022-09-18T20:05:33.368Z,2.13
2022-09-18T20:08:03.928Z,2.53
2022-09-18T20:10:30.615Z,2.88
2022-09-18T20:12:57.752Z,2.80
2022-09-18T20:15:24.374Z,3.25
2022-09-18T20:17:51.035Z,3.28
2022-09-18T20:20:17.716Z,2.90
2022-09-18T20:22:44.406Z,2.63
2022-09-18T20:25:11.245Z,2.60
2022-09-18T20:27:41.532Z,2.70
2022-09-18T20:30:11.177Z,2.60
2022-09-18T20:32:37.949Z,2.42
2022-09-18T20:35:05.999Z,2.20
2022-09-18T20:37:35.397Z,2.05
2022-09-18T20:40:04.086Z,2.88
2022-09-18T20:42:31.836Z,1.58
2022-09-18T20:45:02.363Z,2.83
2022-09-18T20:47:41.210Z,3.28
2022-09-18T20:50:13.302Z,2.50
2022-09-18T20:52:42.977Z,2.65
2022-09-18T20:55:12.473Z,3.20
2022-09-18T20:57:46.798Z,4.45
2022-09-18T21:00:16.128Z,3.47
2022-09-18T21:02:42.788Z,3.38
2022-09-18T21:05:13.562Z,3.03
2022-09-18T21:07:42.174Z,3.15
2022-09-18T21:10:09.983Z,2.53
2022-09-18T21:12:40.930Z,3.15
2022-09-18T21:15:10.893Z,2.85
2022-09-18T21:17:38.464Z,3.30
2022-09-18T21:20:06.285Z,2.80
2022-09-18T21:22:33.327Z,2.78
2022-09-18T21:24:59.918Z,3.00
2022-09-18T21:27:26.964Z,3.33
2022-09-18T21:29:59.075Z,3.35
2022-09-18T21:32:25.994Z,3.88
2022-09-18T21:34:54.602Z,2.90
2022-09-18T21:37:21.830Z,3.38
2022-09-18T21:39:48.469Z,2.58
2022-09-18T21:42:16.738Z,3.10
2022-09-18T21:44:44.550Z,2.95
2022-09-18T21:47:12.083Z,2.03
2022-09-18T21:49:38.768Z,2.40
2022-09-18T21:52:07.660Z,2.13
2022-09-18T21:54:34.516Z,2.60
2022-09-18T21:57:01.470Z,2.55
2022-09-18T21:59:32.613Z,2.38
2022-09-18T22:02:02.997Z,2.10
2022-09-18T22:04:32.765Z,2.10
2022-09-18T22:07:01.344Z,2.97
2022-09-18T22:09:36.541Z,2.50
2022-09-18T22:12:03.544Z,2.80
2022-09-18T22:14:35.601Z,2.65
2022-09-18T22:17:07.265Z,2.65
2022-09-18T22:19:36.174Z,2.33
2022-09-18T22:22:08.043Z,2.85
2022-09-18T22:24:34.793Z,2.65
2022-09-18T22:27:05.775Z,2.22
2022-09-18T22:29:34.313Z,2.25
2022-09-18T22:32:01.318Z,1.92
2022-09-18T22:34:30.275Z,2.75
2022-09-18T22:37:01.030Z,2.25
2022-09-18T22:39:27.806Z,2.03
2022-09-18T22:41:54.857Z,2.17
2022-09-18T22:44:24.701Z,2.38
2022-09-18T22:46:53.535Z,2.20
2022-09-18T22:49:22.428Z,2.80
2022-09-18T22:51:51.306Z,2.45
2022-09-18T22:54:23.781Z,2.25
2022-09-18T22:56:51.924Z,2.33
2022-09-18T22:59:20.670Z,2.22
2022-09-18T23:01:55.409Z,2.75
2022-09-18T23:04:24.047Z,2.15
2022-09-18T23:06:51.551Z,2.88
2022-09-18T23:09:19.456Z,2.65
2022-09-18T23:11:47.984Z,2.80
2022-09-18T23:14:18.253Z,3.50
2022-09-18T23:16:45.272Z,2.53
2022-09-18T23:19:23.543Z,2.67
2022-09-18T23:21:50.838Z,2.20
2022-09-18T23:24:18.171Z,2.42
2022-09-18T23:26:47.075Z,2.42
2022-09-18T23:29:24.525Z,2.75
2022-09-18T23:31:53.418Z,2.72
2022-09-18T23:34:22.069Z,3.33
2022-09-18T23:36:51.347Z,4.20
2022-09-18T23:39:32.409Z,2.72
2022-09-18T23:42:01.330Z,2.95
2022-09-18T23:44:34.387Z,2.85
2022-09-18T23:47:01.568Z,2.72
2022-09-18T23:49:29.175Z,3.38
2022-09-18T23:51:56.038Z,3.00
2022-09-18T23:54:28.414Z,2.08
2022-09-18T23:56:55.631Z,2.40
2022-09-18T23:59:23.656Z,2.40
